Time;durP1;ratioP1;P1;durP2;ratioP2;P2;SDS_P1;SDS_P2;PMS_P1;PMS_P2;Temp;Humidity;BMP_temperature;BMP_pressure;BME280_temperature;BME280_humidity;BME280_pressure;Samples;Min_cycle;Max_cycle;Signal;HPM_P1;HPM_P2
2022/10/10 00:02:08;;;;;;;11.07;8.40;;;7.10;99.90;;;;;;4929075;29;20403;-87
2022/10/10 00:04:36;;;;;;;14.05;9.07;;;7.10;99.90;;;;;;4905357;29;20236;-85
2022/10/10 00:07:03;;;;;;;9.75;8.00;;;6.90;99.90;;;;;;4932884;29;20272;-90
2022/10/10 00:09:33;;;;;;;15.57;10.20;;;6.80;99.90;;;;;;4956828;29;20259;-86
2022/10/10 00:12:00;;;;;;;10.88;8.10;;;6.70;99.90;;;;;;4943276;29;20287;-85
2022/10/10 00:14:27;;;;;;;14.73;9.43;;;6.60;99.90;;;;;;4943168;29;20196;-84
2022/10/10 00:16:58;;;;;;;15.73;9.68;;;6.60;99.90;;;;;;4941354;29;20194;-85
2022/10/10 00:19:27;;;;;;;13.13;8.75;;;6.60;99.90;;;;;;4935522;29;20508;-85
2022/10/10 00:21:55;;;;;;;16.13;10.45;;;6.60;99.90;;;;;;4930287;29;20212;-85
2022/10/10 00:24:29;;;;;;;20.35;9.85;;;6.60;99.90;;;;;;4930925;29;20230;-86
2022/10/10 00:26:56;;;;;;;12.43;8.95;;;6.70;99.90;;;;;;4932674;29;20223;-85
2022/10/10 00:29:24;;;;;;;9.52;8.32;;;6.70;99.90;;;;;;4934011;29;20231;-87
2022/10/10 00:31:52;;;;;;;15.82;10.18;;;6.60;99.90;;;;;;4936247;29;20449;-83
2022/10/10 00:34:20;;;;;;;16.13;10.75;;;6.50;99.90;;;;;;4926455;29;20213;-84
2022/10/10 00:36:48;;;;;;;16.67;10.45;;;6.50;99.90;;;;;;4926755;29;20223;-86
2022/10/10 00:39:25;;;;;;;10.63;9.35;;;6.50;99.90;;;;;;4928470;29;20211;-84
2022/10/10 00:41:52;;;;;;;14.23;10.40;;;6.40;99.90;;;;;;4911396;29;20209;-90
2022/10/10 00:44:22;;;;;;;13.45;10.73;;;6.40;99.90;;;;;;4935442;29;20207;-89
2022/10/10 00:46:49;;;;;;;16.13;11.43;;;6.40;99.90;;;;;;4926256;29;20230;-88
2022/10/10 00:49:20;;;;;;;15.45;12.15;;;6.30;99.90;;;;;;4930782;29;20216;-89
2022/10/10 00:51:52;;;;;;;12.18;10.88;;;6.40;99.90;;;;;;4923982;29;20272;-89
2022/10/10 00:54:21;;;;;;;14.95;11.18;;;6.40;99.90;;;;;;4934950;29;20250;-87
2022/10/10 00:56:56;;;;;;;15.95;12.55;;;6.40;99.90;;;;;;4923953;29;20199;-88
2022/10/10 00:59:23;;;;;;;15.15;11.10;;;6.50;99.90;;;;;;4927487;29;20215;-84
2022/10/10 01:01:52;;;;;;;13.93;11.43;;;6.50;99.90;;;;;;4927588;29;20212;-88
2022/10/10 01:04:28;;;;;;;13.77;10.73;;;6.60;99.90;;;;;;4908509;29;20223;-88
2022/10/10 01:06:55;;;;;;;14.15;11.43;;;6.50;99.90;;;;;;4918612;29;20232;-86
2022/10/10 01:09:25;;;;;;;17.42;12.55;;;6.50;99.90;;;;;;4907658;29;20300;-87
2022/10/10 01:12:13;;;;;;;23.85;11.40;;;6.50;99.90;;;;;;4934840;29;20251;-88
2022/10/10 01:14:58;;;;;;;14.65;11.13;;;6.40;99.90;;;;;;4930825;29;20275;-88
2022/10/10 01:17:53;;;;;;;15.93;10.57;;;6.40;99.90;;;;;;4927048;29;20212;-87
2022/10/10 01:20:51;;;;;;;19.52;12.63;;;6.30;99.90;;;;;;4932298;29;20239;-88
2022/10/10 01:23:36;;;;;;;18.23;12.02;;;6.40;99.90;;;;;;4927366;29;20212;-87
2022/10/10 01:26:36;;;;;;;14.25;11.45;;;6.30;99.90;;;;;;4925381;29;20287;-86
2022/10/10 01:29:31;;;;;;;14.88;11.55;;;6.30;99.90;;;;;;4927451;29;20250;-85
2022/10/10 01:32:13;;;;;;;21.98;13.63;;;6.30;99.90;;;;;;4930554;29;20263;-88
2022/10/10 01:34:56;;;;;;;17.45;12.52;;;6.20;99.90;;;;;;5201481;23;20190;-91
2022/10/10 01:37:47;;;;;;;15.05;12.18;;;6.30;99.90;;;;;;4936324;29;20212;-89
2022/10/10 01:40:26;;;;;;;17.25;12.55;;;6.30;99.90;;;;;;4926738;29;20499;-89
2022/10/10 01:43:00;;;;;;;19.00;12.63;;;6.40;99.90;;;;;;5102184;23;20249;-85
2022/10/10 01:45:27;;;;;;;15.32;12.85;;;6.40;99.90;;;;;;5017175;23;20242;-87
2022/10/10 01:48:00;;;;;;;14.63;12.52;;;6.30;99.90;;;;;;4948662;29;20278;-88
2022/10/10 01:50:30;;;;;;;21.08;12.52;;;6.40;99.90;;;;;;4949464;29;20219;-89
2022/10/10 01:53:13;;;;;;;20.17;12.80;;;6.30;99.90;;;;;;4917740;29;20278;-90
2022/10/10 01:55:56;;;;;;;18.67;12.77;;;6.30;99.90;;;;;;4931504;29;20269;-89
2022/10/10 01:58:34;;;;;;;17.92;13.10;;;6.30;99.90;;;;;;4931308;29;20577;-89
2022/10/10 02:01:28;;;;;;;16.70;12.60;;;6.30;99.90;;;;;;4946407;29;20219;-89
2022/10/10 02:04:08;;;;;;;15.55;11.65;;;6.30;99.90;;;;;;4921981;29;20400;-88
2022/10/10 02:07:26;;;;;;;23.63;12.80;;;6.30;99.90;;;;;;4945358;29;20237;-87
2022/10/10 02:09:56;;;;;;;21.27;13.57;;;6.20;99.90;;;;;;4893170;29;20210;-89
2022/10/10 02:12:26;;;;;;;20.58;15.15;;;6.10;99.90;;;;;;5061852;23;20248;-88
2022/10/10 02:15:02;;;;;;;16.60;12.98;;;6.20;99.90;;;;;;4946332;29;20243;-85
2022/10/10 02:17:35;;;;;;;23.42;14.13;;;6.10;99.90;;;;;;4942476;29;20238;-86
2022/10/10 02:20:06;;;;;;;19.35;13.43;;;6.10;99.90;;;;;;4933516;29;20254;-90
2022/10/10 02:22:35;;;;;;;20.27;14.98;;;6.10;99.90;;;;;;4933800;29;20208;-86
2022/10/10 02:25:03;;;;;;;27.08;14.30;;;6.10;99.90;;;;;;4947348;29;20219;-89
2022/10/10 02:27:57;;;;;;;16.52;13.60;;;6.20;99.90;;;;;;4955503;29;20255;-90
2022/10/10 02:30:25;;;;;;;22.17;13.45;;;6.20;99.90;;;;;;5348166;23;20215;-90
2022/10/10 02:33:03;;;;;;;19.65;14.45;;;6.00;99.90;;;;;;5041127;23;20254;-87
2022/10/10 02:35:41;;;;;;;19.42;12.68;;;6.00;99.90;;;;;;4957797;23;20292;-84
2022/10/10 02:38:13;;;;;;;24.58;15.35;;;6.00;99.90;;;;;;4970162;28;20199;-90
2022/10/10 02:40:44;;;;;;;18.67;14.00;;;5.90;99.90;;;;;;4968368;28;20222;-86
2022/10/10 02:43:14;;;;;;;23.17;15.52;;;5.90;99.90;;;;;;4969193;29;20206;-86
2022/10/10 02:45:47;;;;;;;23.58;14.68;;;5.90;99.90;;;;;;4955790;28;20249;-89
2022/10/10 02:48:19;;;;;;;21.92;14.00;;;5.90;99.90;;;;;;4951707;29;20187;-87
2022/10/10 02:50:49;;;;;;;19.00;14.27;;;5.80;99.90;;;;;;4965009;29;20206;-88
2022/10/10 02:53:18;;;;;;;18.25;13.13;;;5.90;99.90;;;;;;4965855;29;20285;-86
2022/10/10 02:55:45;;;;;;;25.77;15.40;;;5.90;99.90;;;;;;4948579;29;20195;-86
2022/10/10 02:58:13;;;;;;;21.30;16.17;;;5.90;99.90;;;;;;4965169;29;20203;-88
2022/10/10 03:00:44;;;;;;;20.70;14.32;;;5.80;99.90;;;;;;4965707;29;20218;-88
2022/10/10 03:03:11;;;;;;;18.05;14.93;;;5.80;99.90;;;;;;4947285;28;20232;-87
2022/10/10 03:05:39;;;;;;;18.38;14.30;;;5.80;99.90;;;;;;4946435;29;20266;-85
2022/10/10 03:08:07;;;;;;;29.55;14.77;;;5.80;99.90;;;;;;4966992;28;20273;-87
2022/10/10 03:10:40;;;;;;;23.02;14.95;;;5.80;99.90;;;;;;4964582;28;20205;-87
2022/10/10 03:13:08;;;;;;;21.00;16.17;;;5.80;99.90;;;;;;4952114;29;20238;-85
2022/10/10 03:15:35;;;;;;;20.63;15.68;;;5.70;99.90;;;;;;4967111;29;20213;-88
2022/10/10 03:18:02;;;;;;;19.48;13.75;;;5.80;99.90;;;;;;4951596;29;20223;-86
2022/10/10 03:20:35;;;;;;;15.82;13.65;;;5.90;99.90;;;;;;4947708;29;20195;-87
2022/10/10 03:23:02;;;;;;;18.25;12.85;;;5.70;99.90;;;;;;4959425;29;20200;-86
2022/10/10 03:25:29;;;;;;;20.27;13.43;;;5.90;99.90;;;;;;4963906;29;20211;-86
2022/10/10 03:27:56;;;;;;;26.10;15.07;;;5.80;99.90;;;;;;4959959;29;20246;-87
2022/10/10 03:30:23;;;;;;;25.08;15.13;;;6.00;99.90;;;;;;4962811;28;20886;-84
2022/10/10 03:32:53;;;;;;;19.90;15.55;;;5.90;99.90;;;;;;4963559;29;20215;-87
2022/10/10 03:35:20;;;;;;;20.60;14.50;;;5.90;99.90;;;;;;4959758;29;20260;-85
2022/10/10 03:37:48;;;;;;;20.45;14.43;;;5.90;99.90;;;;;;4943597;29;20214;-83
2022/10/10 03:40:15;;;;;;;20.77;15.25;;;5.80;99.90;;;;;;4963967;29;20215;-87
2022/10/10 03:42:43;;;;;;;22.08;15.65;;;5.80;99.90;;;;;;4941945;29;20189;-86
2022/10/10 03:45:14;;;;;;;23.42;15.70;;;5.90;99.90;;;;;;4964582;29;20191;-87
2022/10/10 03:47:41;;;;;;;20.02;16.33;;;5.80;99.90;;;;;;4963845;29;20437;-85
2022/10/10 03:50:18;;;;;;;21.33;15.35;;;5.90;99.90;;;;;;4946870;29;20262;-82
2022/10/10 03:52:45;;;;;;;28.08;16.60;;;6.00;99.90;;;;;;4962465;28;20270;-87
2022/10/10 03:55:13;;;;;;;24.50;17.60;;;5.90;99.90;;;;;;4961347;29;20249;-83
2022/10/10 03:57:41;;;;;;;24.90;16.80;;;6.00;99.90;;;;;;4967974;28;20225;-82
2022/10/10 04:00:09;;;;;;;23.70;16.65;;;6.00;99.90;;;;;;4961985;29;20211;-87
2022/10/10 04:02:37;;;;;;;20.92;15.73;;;5.90;99.90;;;;;;4963628;28;20532;-86
2022/10/10 04:05:09;;;;;;;19.50;16.13;;;5.90;99.90;;;;;;4967275;28;20465;-83
2022/10/10 04:07:40;;;;;;;21.08;16.20;;;5.90;99.90;;;;;;4944884;29;20273;-88
2022/10/10 04:10:09;;;;;;;29.40;15.70;;;5.90;99.90;;;;;;4944681;29;20258;-85
2022/10/10 04:12:36;;;;;;;23.05;15.82;;;5.90;99.90;;;;;;4945207;29;20211;-86
2022/10/10 04:15:04;;;;;;;30.35;17.83;;;5.90;99.90;;;;;;4931407;28;20207;-87
2022/10/10 04:17:31;;;;;;;22.77;16.58;;;5.80;99.90;;;;;;4947578;29;20215;-88
2022/10/10 04:19:58;;;;;;;24.27;17.08;;;5.80;99.90;;;;;;4965659;29;20210;-86
2022/10/10 04:22:26;;;;;;;22.13;16.20;;;5.70;99.90;;;;;;4963611;29;20215;-85
2022/10/10 04:24:53;;;;;;;27.58;17.08;;;5.60;99.90;;;;;;4964463;29;20222;-84
2022/10/10 04:27:20;;;;;;;21.52;16.92;;;5.60;99.90;;;;;;4964772;29;20262;-87
2022/10/10 04:29:48;;;;;;;25.58;16.52;;;5.70;99.90;;;;;;4962974;28;20202;-85
2022/10/10 04:32:17;;;;;;;23.05;16.25;;;5.60;99.90;;;;;;4965613;29;20238;-83
2022/10/10 04:34:46;;;;;;;24.63;18.42;;;5.60;99.90;;;;;;4964914;29;20266;-86
2022/10/10 04:37:14;;;;;;;22.15;17.42;;;5.60;99.90;;;;;;4949033;29;20206;-86
2022/10/10 04:39:44;;;;;;;24.13;19.80;;;5.60;99.90;;;;;;4943382;29;20203;-85
2022/10/10 04:42:11;;;;;;;27.65;18.88;;;5.60;99.90;;;;;;4948197;29;20507;-87
2022/10/10 04:44:38;;;;;;;26.60;20.05;;;5.50;99.90;;;;;;4963844;29;20199;-83
2022/10/10 04:47:07;;;;;;;26.40;19.80;;;5.50;99.90;;;;;;4966187;29;20239;-87
2022/10/10 04:49:35;;;;;;;27.02;19.00;;;5.40;99.90;;;;;;4954368;29;20204;-86
2022/10/10 04:52:09;;;;;;;25.92;19.08;;;5.50;99.90;;;;;;4949477;29;20211;-85
2022/10/10 04:54:36;;;;;;;22.92;16.40;;;5.40;99.90;;;;;;4935248;29;20222;-88
2022/10/10 04:57:04;;;;;;;28.38;18.20;;;5.20;99.90;;;;;;4966227;29;20363;-85
2022/10/10 04:59:31;;;;;;;37.25;19.40;;;5.20;99.90;;;;;;4952309;29;20203;-84
2022/10/10 05:02:02;;;;;;;30.75;19.90;;;5.10;99.90;;;;;;4955362;28;20214;-83
2022/10/10 05:04:30;;;;;;;27.48;21.50;;;5.00;99.90;;;;;;4980622;28;20235;-89
2022/10/10 05:06:57;;;;;;;28.63;19.55;;;5.10;99.90;;;;;;4979115;28;20238;-86
2022/10/10 05:09:26;;;;;;;27.27;21.23;;;5.20;99.90;;;;;;4970084;28;20262;-85
2022/10/10 05:11:58;;;;;;;30.58;20.88;;;5.10;99.90;;;;;;4965219;29;20195;-88
2022/10/10 05:14:34;;;;;;;30.35;21.55;;;5.20;99.90;;;;;;4951129;28;20226;-88
2022/10/10 05:17:02;;;;;;;28.05;22.60;;;5.10;99.90;;;;;;4949439;29;20282;-89
2022/10/10 05:19:32;;;;;;;26.70;19.95;;;5.10;99.90;;;;;;4962535;28;20203;-82
2022/10/10 05:22:02;;;;;;;31.02;21.15;;;5.00;99.90;;;;;;4961815;29;20222;-86
2022/10/10 05:24:32;;;;;;;28.27;22.90;;;5.10;99.90;;;;;;4946104;29;20503;-87
2022/10/10 05:27:01;;;;;;;28.25;20.65;;;5.10;99.90;;;;;;4966503;28;20235;-83
2022/10/10 05:29:29;;;;;;;35.05;24.33;;;5.10;99.90;;;;;;4952659;29;20222;-85
2022/10/10 05:31:58;;;;;;;32.38;21.30;;;5.20;99.90;;;;;;4967202;28;20230;-90
2022/10/10 05:34:25;;;;;;;30.10;23.25;;;5.20;99.90;;;;;;4964666;29;20223;-85
2022/10/10 05:36:55;;;;;;;37.58;23.58;;;5.30;99.90;;;;;;4943851;29;20231;-84
2022/10/10 05:39:25;;;;;;;38.58;24.98;;;5.30;99.90;;;;;;4958283;29;20309;-88
2022/10/10 05:41:52;;;;;;;32.53;23.27;;;5.40;99.90;;;;;;4958857;29;20253;-85
2022/10/10 05:44:19;;;;;;;41.47;25.42;;;5.30;99.90;;;;;;4963072;29;20262;-86
2022/10/10 05:46:47;;;;;;;30.38;22.50;;;5.40;99.90;;;;;;4946443;29;20238;-84
2022/10/10 05:49:17;;;;;;;33.13;24.08;;;5.40;99.90;;;;;;4964688;28;20195;-88
2022/10/10 05:51:46;;;;;;;27.00;22.25;;;5.50;99.90;;;;;;4946410;29;20207;-85
2022/10/10 05:54:13;;;;;;;31.45;23.30;;;5.60;99.90;;;;;;4961979;28;20234;-81
2022/10/10 05:56:40;;;;;;;28.92;22.30;;;5.70;99.90;;;;;;4944376;29;20215;-82
2022/10/10 05:59:07;;;;;;;38.83;24.08;;;5.60;99.90;;;;;;4960836;29;20215;-82
2022/10/10 06:01:37;;;;;;;29.92;21.67;;;5.60;99.90;;;;;;4947713;29;20207;-85
2022/10/10 06:04:05;;;;;;;31.00;23.50;;;5.80;99.90;;;;;;4962013;29;20211;-82
2022/10/10 06:06:36;;;;;;;27.48;20.88;;;5.80;99.90;;;;;;4945336;29;20253;-84
2022/10/10 06:09:07;;;;;;;23.55;19.15;;;6.10;99.90;;;;;;4962699;29;20207;-85
2022/10/10 06:11:35;;;;;;;32.75;20.42;;;6.30;99.90;;;;;;4963783;29;20211;-86
2022/10/10 06:14:02;;;;;;;24.48;19.50;;;6.50;99.90;;;;;;4947335;29;20198;-85
2022/10/10 06:16:32;;;;;;;29.95;19.65;;;6.50;99.90;;;;;;4951438;29;20215;-84
2022/10/10 06:19:00;;;;;;;26.52;16.75;;;6.70;99.90;;;;;;4963150;28;20203;-86
2022/10/10 06:21:28;;;;;;;22.88;17.25;;;7.10;99.90;;;;;;4971557;28;20205;-84
2022/10/10 06:23:57;;;;;;;23.92;16.33;;;7.30;99.90;;;;;;4979046;28;20288;-87
2022/10/10 06:26:31;;;;;;;20.88;14.95;;;7.50;99.90;;;;;;4961481;28;20224;-88
2022/10/10 06:28:58;;;;;;;20.17;13.98;;;7.60;99.90;;;;;;4963588;29;20216;-86
2022/10/10 06:31:25;;;;;;;19.15;13.50;;;7.50;99.90;;;;;;4965158;29;20207;-87
2022/10/10 06:33:53;;;;;;;21.00;14.77;;;7.50;99.90;;;;;;4959044;29;20244;-86
2022/10/10 06:36:22;;;;;;;24.33;14.55;;;7.50;99.90;;;;;;4973954;29;20224;-87
2022/10/10 06:38:50;;;;;;;25.02;16.95;;;7.50;99.90;;;;;;4967982;28;20239;-88
2022/10/10 06:41:17;;;;;;;29.48;19.00;;;7.60;99.90;;;;;;4968131;29;20212;-83
2022/10/10 06:43:44;;;;;;;21.83;16.60;;;7.50;99.90;;;;;;4942082;29;20264;-84
2022/10/10 06:46:10;;;;;;;21.85;16.08;;;7.40;99.90;;;;;;4969812;29;20212;-82
2022/10/10 06:48:38;;;;;;;21.63;16.60;;;7.40;99.90;;;;;;4967320;29;20281;-83
2022/10/10 06:51:08;;;;;;;23.88;17.60;;;7.50;99.90;;;;;;4970732;28;20252;-83
2022/10/10 06:53:36;;;;;;;22.88;16.60;;;7.80;99.90;;;;;;4969435;29;20269;-82
2022/10/10 06:56:05;;;;;;;26.90;16.20;;;7.70;99.90;;;;;;4969330;29;20280;-84
2022/10/10 06:58:32;;;;;;;26.77;16.65;;;7.70;99.90;;;;;;4952555;29;20220;-82
2022/10/10 07:01:03;;;;;;;25.85;17.52;;;7.80;99.90;;;;;;4969754;28;20196;-84
2022/10/10 07:03:31;;;;;;;22.92;16.42;;;7.80;99.90;;;;;;4981561;28;20208;-80
2022/10/10 07:06:00;;;;;;;19.42;14.52;;;7.90;99.90;;;;;;4974003;28;20216;-81
2022/10/10 07:08:29;;;;;;;20.35;17.27;;;8.10;99.90;;;;;;4976442;28;20562;-85
2022/10/10 07:10:56;;;;;;;19.10;14.60;;;8.20;99.90;;;;;;4962581;29;20271;-80
2022/10/10 07:13:31;;;;;;;21.92;15.15;;;8.50;99.90;;;;;;4960663;29;20213;-85
2022/10/10 07:15:58;;;;;;;21.40;16.05;;;9.30;99.90;;;;;;4958295;29;20211;-83
2022/10/10 07:18:27;;;;;;;17.08;12.07;;;10.50;99.90;;;;;;4978044;28;20202;-85
2022/10/10 07:20:58;;;;;;;17.95;14.13;;;11.40;99.90;;;;;;4977503;28;20194;-81
2022/10/10 07:23:27;;;;;;;19.52;11.95;;;12.30;99.90;;;;;;4976645;29;20191;-82
2022/10/10 07:26:02;;;;;;;12.77;11.20;;;13.10;99.90;;;;;;4959917;29;20212;-81
2022/10/10 07:28:30;;;;;;;13.80;12.40;;;14.00;99.90;;;;;;4968230;29;20219;-83
2022/10/10 07:31:05;;;;;;;12.13;10.37;;;15.30;99.90;;;;;;4967248;29;20232;-82
2022/10/10 07:33:39;;;;;;;13.33;10.77;;;16.10;99.90;;;;;;4961259;29;20494;-85
2022/10/10 07:36:06;;;;;;;21.53;12.50;;;16.40;99.90;;;;;;4948662;29;20560;-81
2022/10/10 07:38:35;;;;;;;15.03;10.60;;;16.50;99.90;;;;;;4949015;29;20456;-82
2022/10/10 07:41:11;;;;;;;13.00;10.90;;;16.60;99.90;;;;;;4965890;29;20433;-84
2022/10/10 07:43:39;;;;;;;11.40;10.00;;;16.80;99.90;;;;;;4965494;29;20409;-84
2022/10/10 07:46:12;;;;;;;14.17;11.00;;;16.80;99.90;;;;;;4949189;29;20441;-80
2022/10/10 07:48:40;;;;;;;12.83;11.00;;;16.30;99.90;;;;;;4978135;28;20492;-81
2022/10/10 07:51:10;;;;;;;11.17;9.70;;;16.40;99.90;;;;;;4968120;28;20504;-81
2022/10/10 07:53:40;;;;;;;14.10;11.17;;;16.70;99.90;;;;;;4952099;29;20681;-86
2022/10/10 07:56:11;;;;;;;11.47;9.50;;;17.60;99.90;;;;;;4969396;29;20444;-84
2022/10/10 07:58:39;;;;;;;16.60;11.07;;;17.60;99.90;;;;;;4971963;29;20897;-81
2022/10/10 08:01:10;;;;;;;13.40;11.03;;;18.10;99.90;;;;;;4974717;29;20448;-83
2022/10/10 08:03:38;;;;;;;15.57;11.67;;;17.80;99.90;;;;;;4978768;28;20480;-85
2022/10/10 08:06:08;;;;;;;15.10;11.37;;;17.60;99.90;;;;;;4954310;29;20492;-83
2022/10/10 08:08:37;;;;;;;16.13;12.00;;;17.50;99.90;;;;;;4958451;29;20709;-85
2022/10/10 08:11:20;;;;;;;13.83;10.93;;;17.70;99.90;;;;;;4968967;29;20453;-81
2022/10/10 08:13:48;;;;;;;14.00;11.80;;;17.50;99.90;;;;;;4968288;29;20485;-81
2022/10/10 08:16:23;;;;;;;13.40;11.40;;;17.20;99.90;;;;;;4936897;29;20437;-81
2022/10/10 08:18:52;;;;;;;17.20;11.80;;;17.20;99.90;;;;;;4960684;29;20478;-82
2022/10/10 08:21:19;;;;;;;14.40;11.13;;;17.90;99.90;;;;;;4966176;29;20416;-82
2022/10/10 08:23:46;;;;;;;14.83;10.23;;;18.80;99.90;;;;;;4965606;29;20424;-84
2022/10/10 08:26:15;;;;;;;11.60;9.93;;;17.80;99.90;;;;;;4965218;29;20502;-82
2022/10/10 08:28:42;;;;;;;12.23;9.50;;;18.30;99.90;;;;;;4966499;29;20531;-85
2022/10/10 08:31:13;;;;;;;13.80;9.53;;;18.20;99.90;;;;;;4965660;29;20420;-84
2022/10/10 08:33:46;;;;;;;11.60;9.33;;;18.20;99.90;;;;;;4948419;29;20870;-82
2022/10/10 08:36:21;;;;;;;12.43;9.57;;;17.90;99.90;;;;;;4947577;29;20511;-81
2022/10/10 08:38:55;;;;;;;13.40;9.70;;;17.10;99.90;;;;;;4964741;29;20416;-83
2022/10/10 08:41:59;;;;;;;16.03;9.77;;;17.70;99.90;;;;;;4964302;29;20429;-83
2022/10/10 08:44:50;;;;;;;13.00;9.03;;;17.60;99.90;;;;;;4911707;29;20433;-84
2022/10/10 08:47:29;;;;;;;10.87;9.20;;;17.80;99.90;;;;;;4959225;29;20596;-80
2022/10/10 08:50:05;;;;;;;10.43;9.23;;;17.80;99.90;;;;;;4962562;29;20449;-82
2022/10/10 08:52:54;;;;;;;11.87;9.77;;;16.90;99.90;;;;;;4950655;28;20497;-83
2022/10/10 08:55:32;;;;;;;9.77;8.00;;;16.70;99.90;;;;;;4947538;29;20450;-83
2022/10/10 08:58:22;;;;;;;9.23;8.20;;;16.90;99.90;;;;;;4946969;29;20456;-81
2022/10/10 09:01:08;;;;;;;10.10;8.20;;;17.20;99.90;;;;;;4958434;29;20918;-83
2022/10/10 09:03:45;;;;;;;12.10;8.43;;;17.60;99.90;;;;;;4946913;29;20639;-82
2022/10/10 09:06:32;;;;;;;15.53;8.03;;;17.00;99.90;;;;;;4964273;29;20420;-82
2022/10/10 09:09:35;;;;;;;14.47;8.93;;;16.30;99.90;;;;;;4956028;29;20481;-81
2022/10/10 09:12:21;;;;;;;10.17;8.70;;;15.80;99.90;;;;;;4952922;28;20468;-82
2022/10/10 09:14:56;;;;;;;12.40;7.60;;;15.40;99.90;;;;;;4965638;28;20457;-86
2022/10/10 09:17:56;;;;;;;8.33;7.50;;;15.20;99.90;;;;;;4963948;28;20448;-82
2022/10/10 09:20:35;;;;;;;11.00;8.37;;;15.10;99.90;;;;;;4960591;29;20585;-84
2022/10/10 09:23:22;;;;;;;10.70;7.60;;;15.50;99.90;;;;;;4963716;29;20445;-84
2022/10/10 09:26:11;;;;;;;15.50;9.43;;;15.50;99.90;;;;;;4954709;29;20916;-82
2022/10/10 09:28:53;;;;;;;19.63;8.27;;;15.30;99.90;;;;;;4949487;29;20682;-80
2022/10/10 09:31:35;;;;;;;14.83;10.30;;;15.10;99.90;;;;;;4952725;29;20621;-80
2022/10/10 09:34:18;;;;;;;12.77;8.20;;;14.90;99.90;;;;;;4954742;29;20440;-84
2022/10/10 09:36:48;;;;;;;8.70;7.10;;;14.80;99.90;;;;;;4950517;29;20499;-82
2022/10/10 09:39:15;;;;;;;9.20;8.30;;;14.80;99.90;;;;;;4949860;28;20509;-82
2022/10/10 09:42:02;;;;;;;13.33;7.00;;;14.80;99.90;;;;;;4969917;28;20460;-83
2022/10/10 09:44:30;;;;;;;11.43;8.60;;;15.00;99.90;;;;;;4922605;29;20462;-80
2022/10/10 09:46:58;;;;;;;8.50;6.50;;;14.90;99.90;;;;;;4963562;29;20531;-80
2022/10/10 09:49:28;;;;;;;13.90;9.17;;;15.10;99.90;;;;;;4947213;29;20476;-80
2022/10/10 09:51:55;;;;;;;11.03;7.13;;;15.30;99.90;;;;;;4966178;29;20451;-80
2022/10/10 09:54:24;;;;;;;8.73;6.57;;;15.40;99.90;;;;;;4978383;29;20469;-85
2022/10/10 09:56:54;;;;;;;12.13;6.97;;;15.50;99.90;;;;;;4979506;28;20444;-80
2022/10/10 09:59:43;;;;;;;10.20;8.43;;;15.50;99.90;;;;;;4980464;28;20449;-80
2022/10/10 10:02:25;;;;;;;10.47;7.83;;;15.50;99.90;;;;;;4974214;28;20421;-81
2022/10/10 10:04:53;;;;;;;11.57;7.20;;;15.70;99.90;;;;;;4969098;29;20431;-85
2022/10/10 10:07:33;;;;;;;7.37;6.67;;;15.90;99.90;;;;;;4976345;28;20457;-82
2022/10/10 10:10:09;;;;;;;8.07;7.17;;;16.20;99.90;;;;;;4948504;28;20407;-84
2022/10/10 10:12:39;;;;;;;8.93;6.90;;;16.50;99.90;;;;;;4956059;28;20460;-81
2022/10/10 10:15:19;;;;;;;17.20;7.07;;;16.60;99.90;;;;;;4965626;28;20441;-83
2022/10/10 10:18:15;;;;;;;12.03;7.17;;;16.50;99.90;;;;;;4978408;29;20740;-82
2022/10/10 10:21:07;;;;;;;7.10;6.40;;;16.50;99.90;;;;;;4955431;29;20460;-81
2022/10/10 10:23:48;;;;;;;7.47;6.67;;;16.50;99.90;;;;;;4939225;29;20442;-83
2022/10/10 10:26:17;;;;;;;7.73;6.60;;;16.60;99.90;;;;;;4962769;29;20436;-79
2022/10/10 10:28:46;;;;;;;8.57;7.10;;;16.70;99.90;;;;;;4962438;29;20492;-83
2022/10/10 10:31:26;;;;;;;10.13;6.93;;;16.90;99.90;;;;;;4962655;29;20433;-83
2022/10/10 10:34:34;;;;;;;8.57;4.47;;;17.00;99.90;;;;;;4956428;29;20457;-82
2022/10/10 10:37:12;;;;;;;8.73;7.20;;;17.10;99.90;;;;;;4960639;28;20449;-85
2022/10/10 10:40:03;;;;;;;11.10;7.13;;;17.20;99.90;;;;;;4961756;29;20496;-83
2022/10/10 10:42:52;;;;;;;8.87;6.43;;;17.40;99.90;;;;;;4962051;29;20447;-82
2022/10/10 10:45:48;;;;;;;11.20;6.60;;;17.60;99.90;;;;;;4944851;29;20457;-82
2022/10/10 10:48:43;;;;;;;10.13;6.67;;;18.00;99.90;;;;;;4925632;29;20760;-84
2022/10/10 10:51:31;;;;;;;8.40;6.17;;;17.90;99.90;;;;;;4959771;28;20618;-82
2022/10/10 10:54:16;;;;;;;6.53;5.87;;;17.80;99.90;;;;;;4955903;29;20981;-83
2022/10/10 10:56:52;;;;;;;19.57;5.93;;;18.00;99.90;;;;;;4961536;29;20445;-83
2022/10/10 10:59:42;;;;;;;7.20;5.47;;;18.00;99.90;;;;;;4959981;29;20889;-82
2022/10/10 11:02:58;;;;;;;10.67;6.00;;;18.30;99.90;;;;;;4943279;28;20405;-83
2022/10/10 11:06:11;;;;;;;8.30;5.83;;;18.20;99.90;;;;;;4941676;29;20447;-85
2022/10/10 11:08:52;;;;;;;6.10;5.50;;;18.10;99.90;;;;;;4945474;29;20535;-88
2022/10/10 11:11:41;;;;;;;7.67;5.63;;;18.20;99.90;;;;;;4941919;29;20449;-82
2022/10/10 11:14:33;;;;;;;5.00;4.50;;;18.30;99.90;;;;;;4956502;29;20453;-84
2022/10/10 11:17:15;;;;;;;6.43;5.57;;;18.00;99.90;;;;;;4960998;29;20427;-80
2022/10/10 11:20:06;;;;;;;7.77;5.90;;;17.70;99.90;;;;;;4961072;29;20448;-87
2022/10/10 11:22:50;;;;;;;6.97;5.23;;;17.80;99.90;;;;;;4942589;29;20433;-87
2022/10/10 11:25:29;;;;;;;6.97;5.80;;;18.10;99.90;;;;;;4961121;29;20465;-84
2022/10/10 11:28:16;;;;;;;14.43;7.07;;;18.40;99.90;;;;;;4955503;29;20485;-85
2022/10/10 11:30:58;;;;;;;6.73;5.30;;;18.60;99.90;;;;;;4954803;28;20446;-83
2022/10/10 11:33:42;;;;;;;5.70;4.90;;;18.70;99.90;;;;;;4960211;29;20441;-81
2022/10/10 11:36:18;;;;;;;7.80;4.33;;;18.60;99.90;;;;;;4951044;29;20469;-84
2022/10/10 11:39:09;;;;;;;7.80;5.17;;;18.80;99.90;;;;;;4944019;29;20840;-81
2022/10/10 11:41:54;;;;;;;9.20;5.90;;;18.80;99.90;;;;;;4945560;29;20423;-86
2022/10/10 11:44:50;;;;;;;8.30;4.47;;;18.70;99.90;;;;;;4946999;29;20432;-86
2022/10/10 11:47:26;;;;;;;6.20;5.30;;;18.50;99.90;;;;;;4945452;29;20818;-83
2022/10/10 11:50:02;;;;;;;7.17;5.20;;;18.70;99.90;;;;;;4957005;29;20514;-83
2022/10/10 11:52:44;;;;;;;7.10;5.30;;;18.80;99.90;;;;;;4959733;29;20527;-88
2022/10/10 11:55:17;;;;;;;9.80;5.80;;;18.80;99.90;;;;;;4927106;29;20464;-83
2022/10/10 11:58:05;;;;;;;8.07;5.87;;;18.80;99.90;;;;;;4961364;29;20662;-85
2022/10/10 12:00:43;;;;;;;7.97;5.43;;;19.00;99.90;;;;;;4961197;29;20541;-84
2022/10/10 12:03:10;;;;;;;4.60;4.00;;;19.20;99.90;;;;;;4962567;29;20415;-84
2022/10/10 12:05:50;;;;;;;7.00;5.57;;;19.20;99.90;;;;;;4961377;29;20636;-85
2022/10/10 12:08:25;;;;;;;9.30;4.63;;;19.10;99.90;;;;;;4934070;29;20511;-85
2022/10/10 12:10:57;;;;;;;7.07;4.90;;;19.10;99.90;;;;;;4944205;29;20445;-87
2022/10/10 12:13:42;;;;;;;8.37;5.30;;;19.10;99.90;;;;;;4943608;29;20791;-85
2022/10/10 12:16:14;;;;;;;5.67;5.07;;;19.20;99.90;;;;;;4944643;29;20445;-84
2022/10/10 12:19:00;;;;;;;5.57;5.03;;;19.00;99.90;;;;;;4961347;29;20436;-83
2022/10/10 12:21:30;;;;;;;5.43;4.80;;;19.00;99.90;;;;;;4960642;29;20871;-83
2022/10/10 12:24:13;;;;;;;5.60;5.03;;;19.10;99.90;;;;;;4937691;29;20811;-85
2022/10/10 12:27:10;;;;;;;4.83;4.40;;;19.20;99.90;;;;;;4955749;29;20456;-87
2022/10/10 12:30:08;;;;;;;6.40;5.20;;;19.60;99.90;;;;;;4941394;29;20521;-83
2022/10/10 12:32:35;;;;;;;13.77;4.20;;;19.70;99.90;;;;;;4952066;29;20506;-86
2022/10/10 12:35:02;;;;;;;5.80;4.40;;;19.60;99.90;;;;;;4959417;29;20455;-85
2022/10/10 12:37:54;;;;;;;4.93;4.50;;;19.70;99.90;;;;;;4956020;29;20474;-86
2022/10/10 12:40:22;;;;;;;6.03;5.47;;;19.80;99.90;;;;;;4949319;29;20462;-84
2022/10/10 12:42:56;;;;;;;4.10;3.80;;;20.00;99.90;;;;;;4960796;29;20493;-86
2022/10/10 12:45:29;;;;;;;5.20;4.80;;;20.00;99.90;;;;;;4949539;29;21015;-83
2022/10/10 12:48:00;;;;;;;6.13;4.63;;;20.10;99.90;;;;;;4957860;29;20427;-83
2022/10/10 12:50:39;;;;;;;6.00;5.40;;;20.10;99.90;;;;;;4946693;29;20439;-85
2022/10/10 12:53:12;;;;;;;9.87;5.30;;;20.10;99.90;;;;;;4965582;29;21010;-84
2022/10/10 12:56:00;;;;;;;7.00;4.93;;;20.10;99.90;;;;;;4964595;29;20434;-84
2022/10/10 12:58:33;;;;;;;4.93;4.53;;;20.20;99.90;;;;;;4957558;29;20455;-84
2022/10/10 13:01:26;;;;;;;5.97;4.57;;;20.10;99.90;;;;;;4967736;29;20758;-84
2022/10/10 13:03:57;;;;;;;12.43;4.87;;;20.10;99.90;;;;;;4951025;29;20469;-86
2022/10/10 13:06:38;;;;;;;6.73;5.53;;;20.00;99.90;;;;;;4934531;29;20441;-87
2022/10/10 13:09:14;;;;;;;5.07;4.27;;;20.00;99.90;;;;;;4962175;28;20498;-82
2022/10/10 13:11:55;;;;;;;8.33;5.50;;;19.90;99.90;;;;;;4948504;29;20721;-87
2022/10/10 13:14:23;;;;;;;6.90;5.60;;;20.00;99.90;;;;;;4958479;28;20436;-84
2022/10/10 13:16:53;;;;;;;7.80;5.80;;;20.00;99.90;;;;;;4946479;29;20446;-85